createdAt,value
2023-05-12T00:01:31.397Z,18.24
2023-05-12T00:03:58.129Z,18.26
2023-05-12T00:06:24.840Z,18.18
2023-05-12T00:08:51.420Z,18.16
2023-05-12T00:11:18.097Z,18.12
2023-05-12T00:13:44.771Z,18.12
2023-05-12T00:16:11.626Z,18.13
2023-05-12T00:18:38.262Z,18.20
2023-05-12T00:21:04.822Z,18.21
2023-05-12T00:23:31.380Z,18.25
2023-05-12T00:25:57.896Z,18.21
2023-05-12T00:28:24.433Z,18.14
2023-05-12T00:30:51.206Z,18.12
2023-05-12T00:33:17.827Z,18.17
2023-05-12T00:35:47.320Z,18.18
2023-05-12T00:38:13.933Z,18.22
2023-05-12T00:40:41.217Z,18.23
2023-05-12T00:43:08.763Z,18.22
2023-05-12T00:45:35.857Z,18.16
2023-05-12T00:48:04.290Z,18.13
2023-05-12T00:50:31.498Z,18.07
2023-05-12T00:53:00.708Z,18.13
2023-05-12T00:55:29.060Z,18.14
2023-05-12T00:57:56.231Z,18.09
2023-05-12T01:00:23.048Z,18.02
2023-05-12T01:02:49.829Z,18.02
2023-05-12T01:05:16.558Z,17.99
2023-05-12T01:07:46.499Z,17.97
2023-05-12T01:10:18.736Z,18.03
2023-05-12T01:12:45.759Z,18.07
2023-05-12T01:15:12.923Z,17.99
2023-05-12T01:17:46.897Z,18.05
2023-05-12T01:20:16.494Z,17.98
2023-05-12T01:22:43.652Z,18.00
2023-05-12T01:25:12.110Z,18.06
2023-05-12T01:27:40.441Z,17.87
2023-05-12T01:30:09.484Z,17.99
2023-05-12T01:32:38.296Z,18.04
2023-05-12T01:35:06.485Z,17.96
2023-05-12T01:37:34.431Z,17.96
2023-05-12T01:40:03.966Z,18.02
2023-05-12T01:42:30.541Z,17.96
2023-05-12T01:44:57.895Z,17.85
2023-05-12T01:47:25.627Z,17.92
2023-05-12T01:49:58.830Z,17.98
2023-05-12T01:52:25.972Z,18.03
2023-05-12T01:54:52.518Z,18.03
2023-05-12T01:57:19.284Z,18.00
2023-05-12T01:59:46.293Z,17.95
2023-05-12T02:02:12.948Z,18.06
2023-05-12T02:04:39.588Z,18.07
2023-05-12T02:07:06.181Z,17.97
2023-05-12T02:09:33.145Z,17.85
2023-05-12T02:12:02.588Z,17.69
2023-05-12T02:14:29.208Z,17.87
2023-05-12T02:16:56.349Z,17.89
2023-05-12T02:19:24.625Z,17.96
2023-05-12T02:21:51.249Z,18.01
2023-05-12T02:24:17.815Z,18.01
2023-05-12T02:26:44.970Z,17.96
2023-05-12T02:29:13.111Z,18.12
2023-05-12T02:31:39.886Z,18.06
2023-05-12T02:34:15.881Z,18.12
2023-05-12T02:36:42.479Z,18.12
2023-05-12T02:39:09.048Z,17.91
2023-05-12T02:41:35.939Z,17.93
2023-05-12T02:44:02.431Z,18.01
2023-05-12T02:46:28.944Z,17.97
2023-05-12T02:48:55.923Z,18.03
2023-05-12T02:51:22.942Z,17.97
2023-05-12T02:53:49.540Z,18.00
2023-05-12T02:56:17.608Z,17.97
2023-05-12T02:58:44.122Z,18.08
2023-05-12T03:01:11.857Z,17.94
2023-05-12T03:03:40.812Z,17.91
2023-05-12T03:06:07.996Z,17.98
2023-05-12T03:08:34.852Z,18.01
2023-05-12T03:11:01.920Z,17.99
2023-05-12T03:13:28.811Z,17.91
2023-05-12T03:15:55.800Z,17.98
2023-05-12T03:18:22.722Z,17.91
2023-05-12T03:20:50.182Z,18.04
2023-05-12T03:23:16.864Z,17.99
2023-05-12T03:25:43.986Z,18.06
2023-05-12T03:28:11.347Z,18.00
2023-05-12T03:30:38.093Z,17.87
2023-05-12T03:33:05.188Z,17.96
2023-05-12T03:35:32.222Z,17.88
2023-05-12T03:38:01.495Z,17.88
2023-05-12T03:40:28.424Z,17.94
2023-05-12T03:42:54.975Z,17.95
2023-05-12T03:45:21.664Z,17.92
2023-05-12T03:47:48.627Z,18.06
2023-05-12T03:50:15.500Z,17.90
2023-05-12T03:52:42.138Z,17.88
2023-05-12T03:55:09.188Z,17.97
2023-05-12T03:57:36.644Z,17.96
2023-05-12T04:00:04.932Z,17.87
2023-05-12T04:02:39.382Z,17.81
2023-05-12T04:05:08.557Z,17.70
2023-05-12T04:07:35.732Z,17.87
2023-05-12T04:10:02.755Z,17.89
2023-05-12T04:12:29.334Z,17.95
2023-05-12T04:14:56.193Z,17.91
2023-05-12T04:17:25.095Z,17.83
2023-05-12T04:19:53.338Z,17.89
2023-05-12T04:22:19.933Z,17.90
2023-05-12T04:24:46.498Z,17.84
2023-05-12T04:27:13.280Z,17.97
2023-05-12T04:29:39.907Z,17.93
2023-05-12T04:32:06.817Z,17.81
2023-05-12T04:34:34.605Z,17.81
2023-05-12T04:37:01.215Z,17.87
2023-05-12T04:39:28.037Z,17.85
2023-05-12T04:41:54.733Z,17.80
2023-05-12T04:44:22.266Z,17.77
2023-05-12T04:46:53.333Z,17.75
2023-05-12T04:49:20.141Z,17.62
2023-05-12T04:51:47.795Z,17.60
2023-05-12T04:54:14.432Z,17.67
2023-05-12T04:56:41.491Z,17.71
2023-05-12T04:59:08.076Z,17.69
2023-05-12T05:01:34.795Z,17.79
2023-05-12T05:04:01.467Z,17.82
2023-05-12T05:06:28.323Z,17.86
2023-05-12T05:08:55.803Z,17.88
2023-05-12T05:11:22.900Z,17.96
2023-05-12T05:13:49.511Z,18.12
2023-05-12T05:16:17.588Z,18.06
2023-05-12T05:18:46.742Z,18.08
2023-05-12T05:21:16.533Z,18.12
2023-05-12T05:23:43.453Z,18.20
2023-05-12T05:26:10.589Z,18.16
2023-05-12T05:28:39.873Z,18.24
2023-05-12T05:31:07.394Z,18.25
2023-05-12T05:33:34.604Z,18.27
2023-05-12T05:36:03.320Z,18.22
2023-05-12T05:38:30.683Z,18.26
2023-05-12T05:40:57.268Z,18.20
2023-05-12T05:43:25.924Z,18.11
2023-05-12T05:45:53.114Z,17.82
2023-05-12T05:48:21.744Z,17.73
2023-05-12T05:50:48.863Z,17.87
2023-05-12T05:53:16.210Z,17.99
2023-05-12T05:55:43.275Z,18.00
2023-05-12T05:58:10.492Z,18.12
2023-05-12T06:00:37.271Z,18.16
2023-05-12T06:03:04.488Z,18.26
2023-05-12T06:05:31.071Z,18.34
2023-05-12T06:07:57.733Z,18.17
2023-05-12T06:10:25.492Z,18.26
2023-05-12T06:12:52.050Z,18.44
2023-05-12T06:15:20.937Z,18.34
2023-05-12T06:17:49.516Z,18.45
2023-05-12T06:20:16.171Z,18.45
2023-05-12T06:22:44.990Z,18.43
2023-05-12T06:25:11.769Z,18.46
2023-05-12T06:27:38.418Z,18.58
2023-05-12T06:30:06.399Z,18.59
2023-05-12T06:32:33.493Z,18.48
2023-05-12T06:35:00.320Z,18.42
2023-05-12T06:37:27.461Z,18.48
2023-05-12T06:39:54.133Z,18.49
2023-05-12T06:42:20.673Z,18.60
2023-05-12T06:44:51.927Z,18.48
2023-05-12T06:47:20.683Z,18.51
2023-05-12T06:49:49.945Z,18.52
2023-05-12T06:52:17.029Z,18.47
2023-05-12T06:54:43.529Z,18.60
2023-05-12T06:57:10.065Z,18.56
2023-05-12T06:59:36.636Z,18.32
2023-05-12T07:02:03.294Z,18.32
2023-05-12T07:04:29.870Z,18.52
2023-05-12T07:06:56.736Z,18.61
2023-05-12T07:09:23.278Z,18.69
2023-05-12T07:11:49.884Z,18.68
2023-05-12T07:14:16.520Z,18.54
2023-05-12T07:16:43.177Z,18.61
2023-05-12T07:19:09.846Z,18.66
2023-05-12T07:21:37.100Z,18.75
2023-05-12T07:24:03.881Z,18.84
2023-05-12T07:26:30.471Z,18.87
2023-05-12T07:28:57.059Z,18.86
2023-05-12T07:31:23.640Z,18.91
2023-05-12T07:33:50.237Z,18.96
2023-05-12T07:36:16.744Z,18.97
2023-05-12T07:38:43.300Z,19.04
2023-05-12T07:41:09.873Z,19.01
2023-05-12T07:43:36.393Z,19.02
2023-05-12T07:46:02.907Z,19.07
2023-05-12T07:48:29.892Z,19.12
2023-05-12T07:50:57.142Z,19.17
2023-05-12T07:53:23.697Z,19.15
2023-05-12T07:55:50.240Z,19.30
2023-05-12T07:58:16.766Z,19.29
2023-05-12T08:00:44.653Z,19.26
2023-05-12T08:03:11.256Z,19.15
2023-05-12T08:05:37.824Z,19.14
2023-05-12T08:08:04.403Z,19.16
2023-05-12T08:10:32.581Z,19.16
2023-05-12T08:12:59.192Z,19.24
2023-05-12T08:15:25.717Z,19.17
2023-05-12T08:17:52.322Z,19.20
2023-05-12T08:20:18.855Z,19.17
2023-05-12T08:22:47.722Z,19.17
2023-05-12T08:25:14.641Z,19.17
2023-05-12T08:27:41.384Z,19.20
2023-05-12T08:30:09.148Z,19.20
2023-05-12T08:32:36.293Z,19.13
2023-05-12T08:35:03.215Z,19.25
2023-05-12T08:37:30.936Z,19.23
2023-05-12T08:39:58.424Z,19.25
2023-05-12T08:42:40.456Z,19.31
2023-05-12T08:45:08.158Z,19.29
2023-05-12T08:47:35.849Z,19.35
2023-05-12T08:50:04.226Z,19.46
2023-05-12T08:52:35.632Z,19.44
2023-05-12T08:55:04.241Z,19.33
2023-05-12T08:57:31.259Z,19.35
2023-05-12T08:59:59.444Z,19.33
2023-05-12T09:02:37.592Z,19.33
2023-05-12T09:05:08.725Z,19.20
2023-05-12T09:07:38.811Z,19.27
2023-05-12T09:10:19.608Z,19.32
2023-05-12T09:12:55.694Z,19.31
2023-05-12T09:15:33.773Z,19.28
2023-05-12T09:18:00.381Z,19.25
2023-05-12T09:20:31.455Z,19.27
2023-05-12T09:23:00.058Z,19.30
2023-05-12T09:25:26.628Z,19.37
2023-05-12T09:27:58.966Z,19.39
2023-05-12T09:30:30.855Z,19.41
2023-05-12T09:33:08.168Z,19.34
2023-05-12T09:35:53.116Z,19.44
2023-05-12T09:38:19.665Z,19.41
2023-05-12T09:40:46.211Z,19.40
2023-05-12T09:43:15.377Z,19.44
2023-05-12T09:45:43.979Z,19.40
2023-05-12T09:48:12.417Z,19.43
2023-05-12T09:50:48.235Z,19.48
2023-05-12T09:53:17.287Z,19.47
2023-05-12T09:55:45.107Z,19.60
2023-05-12T09:58:11.650Z,19.64
2023-05-12T10:00:58.658Z,19.60
2023-05-12T10:03:30.235Z,19.54
2023-05-12T10:06:02.610Z,19.75
2023-05-12T10:08:42.171Z,19.68
2023-05-12T10:11:09.591Z,19.78
2023-05-12T10:13:36.541Z,19.82
2023-05-12T10:16:03.538Z,19.74
2023-05-12T10:18:33.142Z,19.86
2023-05-12T10:21:00.902Z,19.89
2023-05-12T10:23:27.966Z,19.97
2023-05-12T10:26:02.416Z,19.98
2023-05-12T10:28:29.748Z,19.95
2023-05-12T10:31:00.241Z,20.05
2023-05-12T10:33:27.598Z,19.92
2023-05-12T10:35:54.356Z,19.95
2023-05-12T10:38:21.045Z,19.97
2023-05-12T10:41:03.612Z,20.04
2023-05-12T10:43:42.770Z,20.02
2023-05-12T10:46:21.006Z,20.13
2023-05-12T10:49:05.754Z,20.14
2023-05-12T10:51:44.259Z,20.08
2023-05-12T10:54:12.725Z,19.91
2023-05-12T10:56:39.429Z,19.99
2023-05-12T10:59:20.250Z,20.01
2023-05-12T11:01:58.753Z,20.13
2023-05-12T11:04:41.667Z,20.23
2023-05-12T11:07:14.361Z,20.28
2023-05-12T11:09:52.328Z,20.40
2023-05-12T11:12:26.311Z,20.47
2023-05-12T11:14:52.997Z,20.47
2023-05-12T11:17:19.526Z,20.53
2023-05-12T11:19:50.114Z,20.70
2023-05-12T11:22:19.784Z,20.88
2023-05-12T11:24:47.193Z,21.03
2023-05-12T11:27:16.350Z,20.82
2023-05-12T11:29:45.055Z,20.92
2023-05-12T11:32:14.952Z,20.93
2023-05-12T11:34:41.521Z,21.03
2023-05-12T11:37:08.156Z,20.98
2023-05-12T11:39:36.164Z,21.23
2023-05-12T11:42:12.104Z,21.32
2023-05-12T11:44:49.498Z,21.40
2023-05-12T11:47:20.032Z,21.49
2023-05-12T11:49:50.883Z,21.53
2023-05-12T11:52:19.649Z,21.53
2023-05-12T11:54:57.756Z,21.69
2023-05-12T11:57:36.109Z,21.60
2023-05-12T12:00:09.661Z,21.60
2023-05-12T12:08:28.032Z,21.48
2023-05-12T12:10:54.876Z,21.36
2023-05-12T12:13:25.879Z,21.31
2023-05-12T12:15:52.925Z,21.30
2023-05-12T12:18:19.615Z,21.24
2023-05-12T12:20:49.189Z,21.16
2023-05-12T12:23:15.831Z,21.15
2023-05-12T12:25:43.704Z,21.14
2023-05-12T12:28:10.342Z,21.14
2023-05-12T12:30:37.327Z,21.12
2023-05-12T12:33:03.947Z,21.10
2023-05-12T12:35:30.852Z,21.07
2023-05-12T12:37:58.329Z,21.11
2023-05-12T12:40:24.896Z,21.24
2023-05-12T12:42:51.424Z,21.33
2023-05-12T12:45:20.294Z,21.36
2023-05-12T12:47:47.440Z,21.43
2023-05-12T12:50:14.080Z,21.11
2023-05-12T12:52:40.662Z,21.30
2023-05-12T12:55:07.976Z,21.43
2023-05-12T12:57:34.982Z,21.48
2023-05-12T13:00:05.401Z,21.56
2023-05-12T13:02:33.063Z,21.68
2023-05-12T13:05:04.256Z,21.72
2023-05-12T13:07:31.066Z,21.55
2023-05-12T13:09:57.855Z,20.78
2023-05-12T13:12:25.118Z,21.18
2023-05-12T13:14:51.663Z,21.11
2023-05-12T13:17:19.043Z,21.27
2023-05-12T13:19:47.015Z,21.22
2023-05-12T13:22:13.968Z,20.86
2023-05-12T13:24:45.644Z,21.32
2023-05-12T13:27:22.574Z,21.44
2023-05-12T13:29:50.129Z,21.60
2023-05-12T13:32:17.099Z,21.66
2023-05-12T13:34:48.927Z,21.76
2023-05-12T13:37:15.788Z,21.74
2023-05-12T13:39:42.469Z,21.86
2023-05-12T13:42:09.161Z,21.51
2023-05-12T13:44:35.870Z,21.81
2023-05-12T13:47:02.448Z,21.67
2023-05-12T13:49:29.240Z,21.87
2023-05-12T13:51:55.767Z,21.87
2023-05-12T13:54:23.022Z,21.99
2023-05-12T13:56:49.553Z,21.91
2023-05-12T13:59:16.205Z,22.07
2023-05-12T14:01:44.102Z,22.05
2023-05-12T14:04:11.715Z,22.13
2023-05-12T14:06:38.467Z,22.19
2023-05-12T14:09:07.886Z,21.96
2023-05-12T14:11:35.214Z,21.58
2023-05-12T14:14:03.407Z,21.96
2023-05-12T14:16:30.381Z,22.10
2023-05-12T14:18:57.102Z,22.14
2023-05-12T14:21:23.679Z,21.88
2023-05-12T14:23:51.312Z,21.75
2023-05-12T14:26:19.194Z,21.63
2023-05-12T14:28:46.112Z,21.94
2023-05-12T14:31:12.674Z,22.00
2023-05-12T14:33:39.313Z,22.06
2023-05-12T14:36:08.410Z,21.92
2023-05-12T14:38:36.052Z,21.83
2023-05-12T14:41:02.579Z,21.58
2023-05-12T14:43:29.331Z,21.63
2023-05-12T14:45:56.103Z,21.63
2023-05-12T14:48:26.235Z,21.74
2023-05-12T14:50:54.186Z,21.71
2023-05-12T14:53:22.156Z,21.73
2023-05-12T14:55:49.585Z,21.72
2023-05-12T14:58:17.780Z,21.83
2023-05-12T15:00:45.376Z,21.68
2023-05-12T15:03:12.160Z,21.68
2023-05-12T15:05:56.857Z,21.45
2023-05-12T15:08:27.013Z,21.49
2023-05-12T15:10:53.597Z,21.46
2023-05-12T15:13:22.880Z,21.42
2023-05-12T15:15:52.931Z,21.23
2023-05-12T15:18:22.871Z,21.31
2023-05-12T15:20:52.307Z,20.96
2023-05-12T15:23:19.300Z,20.87
2023-05-12T15:25:46.040Z,20.68
2023-05-12T15:28:12.803Z,20.87
2023-05-12T15:30:39.571Z,20.94
2023-05-12T15:33:06.553Z,20.97
2023-05-12T15:35:34.407Z,20.86
2023-05-12T15:38:03.004Z,20.74
2023-05-12T15:40:30.950Z,20.90
2023-05-12T15:42:58.628Z,20.80
2023-05-12T15:45:25.282Z,21.02
2023-05-12T15:47:52.025Z,20.70
2023-05-12T15:50:22.309Z,20.75
2023-05-12T15:52:49.556Z,20.44
2023-05-12T15:55:16.769Z,20.60
2023-05-12T15:57:43.339Z,20.82
2023-05-12T16:00:10.561Z,20.95
2023-05-12T16:02:40.540Z,21.02
2023-05-12T16:05:07.388Z,20.91
2023-05-12T16:10:01.269Z,20.81
2023-05-12T16:12:27.819Z,20.91
